Time;durP1;ratioP1;P1;durP2;ratioP2;P2;SDS_P1;SDS_P2;PMS_P1;PMS_P2;Temp;Humidity;BMP_temperature;BMP_pressure;BME280_temperature;BME280_humidity;BME280_pressure;Samples;Min_cycle;Max_cycle;Signal;HPM_P1;HPM_P2
2023/05/21 00:00:44;;;;;;;4.25;2.53;;;;;;;20.89;50.44;99094.72;4932266;29;20108;-76
2023/05/21 00:03:12;;;;;;;3.67;2.22;;;;;;;20.91;50.55;99103.41;4932407;29;20028;-76
2023/05/21 00:05:41;;;;;;;3.28;2.00;;;;;;;20.87;50.60;99085.16;4932056;29;20038;-75
2023/05/21 00:08:07;;;;;;;3.92;1.90;;;;;;;20.87;50.49;99096.59;4932303;29;20063;-75
2023/05/21 00:10:32;;;;;;;3.40;2.03;;;;;;;20.88;50.55;99092.97;4932085;29;20106;-75
2023/05/21 00:12:57;;;;;;;4.53;2.47;;;;;;;20.89;50.41;99088.53;4931672;29;20063;-75
2023/05/21 00:15:23;;;;;;;4.00;2.38;;;;;;;20.89;50.43;99097.38;4932018;29;20035;-76
2023/05/21 00:17:48;;;;;;;3.53;2.30;;;;;;;20.89;50.58;99097.38;4914904;29;20024;-75
2023/05/21 00:20:15;;;;;;;3.60;2.33;;;;;;;20.89;50.49;99099.16;4932254;29;20023;-76
2023/05/21 00:22:43;;;;;;;3.55;2.50;;;;;;;20.89;50.55;99093.84;4931845;29;20038;-76
2023/05/21 00:25:10;;;;;;;4.32;2.50;;;;;;;20.89;50.50;99088.53;4932083;29;20061;-76
2023/05/21 00:27:35;;;;;;;5.07;2.53;;;;;;;20.89;50.49;99093.84;4931640;29;20028;-76
2023/05/21 00:30:02;;;;;;;3.95;2.55;;;;;;;20.91;50.36;99091.94;4931808;29;20024;-76
2023/05/21 00:32:27;;;;;;;4.32;2.35;;;;;;;20.91;50.27;99087.50;4931944;29;20065;-76
2023/05/21 00:34:53;;;;;;;3.13;2.20;;;;;;;20.92;50.38;99078.56;4931759;29;20024;-75
2023/05/21 00:37:19;;;;;;;2.90;1.98;;;;;;;20.91;50.44;99082.19;4931780;29;20091;-76
2023/05/21 00:39:45;;;;;;;3.67;2.20;;;;;;;20.91;50.60;99087.50;4914754;29;20024;-76
2023/05/21 00:42:11;;;;;;;3.33;2.00;;;;;;;20.91;50.36;99087.50;4931588;29;20024;-76
2023/05/21 00:44:37;;;;;;;3.75;2.20;;;;;;;20.93;50.23;99085.56;4931849;29;20028;-75
2023/05/21 00:47:05;;;;;;;4.22;2.15;;;;;;;20.92;50.15;99081.22;4931803;29;20035;-75
2023/05/21 00:49:31;;;;;;;4.07;2.30;;;;;;;20.92;50.42;99078.56;4931634;29;20032;-75
2023/05/21 00:51:56;;;;;;;3.17;2.20;;;;;;;20.92;50.07;99073.28;4931680;29;20509;-75
2023/05/21 00:54:23;;;;;;;2.97;1.92;;;;;;;20.91;50.35;99068.94;4931716;28;20078;-75
2023/05/21 00:56:49;;;;;;;3.50;2.50;;;;;;;20.91;50.21;99068.94;4931530;28;20032;-76
2023/05/21 00:59:15;;;;;;;4.28;2.78;;;;;;;20.91;50.29;99068.94;4931820;29;20490;-76
2023/05/21 01:01:44;;;;;;;3.40;2.17;;;;;;;20.89;50.35;99073.50;4932085;29;20113;-75
2023/05/21 01:04:10;;;;;;;3.35;2.13;;;;;;;20.90;50.14;99064.59;4917612;29;20496;-75
2023/05/21 01:06:36;;;;;;;4.85;2.88;;;;;;;20.89;50.36;99068.19;4934722;29;20062;-75
2023/05/21 01:09:03;;;;;;;3.00;2.05;;;;;;;20.88;50.38;99066.47;4934154;29;20385;-75
2023/05/21 01:11:50;;;;;;;4.13;2.58;;;;;;;20.89;50.44;99062.88;4934622;28;20393;-76
2023/05/21 01:14:17;;;;;;;2.65;2.00;;;;;;;20.89;50.21;99062.88;4934312;29;20042;-75
2023/05/21 01:16:47;;;;;;;3.13;1.92;;;;;;;20.89;50.15;99062.88;4934426;29;20470;-75
2023/05/21 01:19:15;;;;;;;3.38;2.05;;;;;;;20.89;50.29;99057.59;4934454;29;20027;-75
2023/05/21 01:21:45;;;;;;;3.53;2.30;;;;;;;20.87;50.11;99056.81;4934646;28;20473;-75
2023/05/21 01:24:10;;;;;;;3.97;2.53;;;;;;;20.88;50.47;99055.84;4916895;29;20028;-75
2023/05/21 01:26:37;;;;;;;3.22;2.30;;;;;;;20.87;50.30;99059.47;4933832;29;20035;-76
2023/05/21 01:29:11;;;;;;;3.92;2.20;;;;;;;20.87;50.25;99054.16;4933639;29;20031;-76
2023/05/21 01:31:55;;;;;;;3.50;2.20;;;;;;;20.86;50.25;99059.56;4925710;29;20115;-75
2023/05/21 01:34:25;;;;;;;2.97;2.10;;;;;;;20.86;50.18;99057.78;4915195;29;20079;-76
2023/05/21 01:37:21;;;;;;;3.85;2.28;;;;;;;20.85;50.22;99061.38;4915249;29;20032;-75
2023/05/21 01:39:54;;;;;;;4.50;2.13;;;;;;;20.85;50.15;99066.69;4973119;28;20043;-76
2023/05/21 01:42:22;;;;;;;3.78;2.40;;;;;;;20.85;50.18;99060.53;4957230;28;20031;-76
2023/05/21 01:44:51;;;;;;;4.13;2.70;;;;;;;20.86;50.18;99065.72;4973105;28;20421;-76
2023/05/21 01:47:17;;;;;;;4.40;2.50;;;;;;;20.85;50.29;99058.72;4973126;28;20047;-76
2023/05/21 01:49:43;;;;;;;3.13;2.22;;;;;;;20.85;50.25;99061.38;4976503;28;20070;-76
2023/05/21 01:52:09;;;;;;;5.13;2.30;;;;;;;20.84;50.40;99067.63;4992511;28;20030;-75
2023/05/21 01:54:34;;;;;;;3.58;2.08;;;;;;;20.84;50.16;99059.66;4992190;28;20049;-75
2023/05/21 01:57:00;;;;;;;3.60;2.40;;;;;;;20.84;50.25;99054.34;4992626;28;20046;-75
2023/05/21 01:59:26;;;;;;;3.60;2.45;;;;;;;20.84;50.26;99064.97;4992583;28;20109;-76
2023/05/21 02:01:52;;;;;;;3.95;2.55;;;;;;;20.85;50.18;99061.38;4992420;28;20524;-75
2023/05/21 02:04:17;;;;;;;3.45;2.30;;;;;;;20.82;50.36;99056.25;4992443;28;20062;-75
2023/05/21 02:06:43;;;;;;;4.03;2.35;;;;;;;20.82;50.29;99061.53;4992185;28;20030;-75
2023/05/21 02:09:08;;;;;;;4.22;2.58;;;;;;;20.83;50.01;99060.63;4991818;28;20041;-75
2023/05/21 02:11:34;;;;;;;2.78;1.90;;;;;;;20.83;50.33;99062.41;4992103;28;20039;-76
2023/05/21 02:13:59;;;;;;;2.80;2.00;;;;;;;20.82;50.18;99058.06;4975368;28;20109;-76
2023/05/21 02:16:24;;;;;;;3.53;1.92;;;;;;;20.81;50.15;99051.88;4960889;28;20465;-76
2023/05/21 02:18:52;;;;;;;3.95;2.40;;;;;;;20.81;50.23;99053.72;4924272;29;20043;-76
2023/05/21 02:21:19;;;;;;;4.47;2.45;;;;;;;20.80;50.10;99058.16;4933448;29;20028;-75
2023/05/21 02:23:45;;;;;;;3.80;2.30;;;;;;;20.80;50.43;99058.16;4933316;29;20031;-76
2023/05/21 02:26:10;;;;;;;3.47;2.13;;;;;;;20.80;50.25;99058.16;4933457;29;20067;-75
2023/05/21 02:28:35;;;;;;;3.13;2.15;;;;;;;20.79;50.06;99056.47;4933597;29;20035;-76
2023/05/21 02:31:01;;;;;;;3.80;2.47;;;;;;;20.79;50.29;99061.75;4933472;29;20032;-75
2023/05/21 02:33:26;;;;;;;3.03;2.25;;;;;;;20.77;50.27;99056.56;4933203;29;20030;-75
2023/05/21 02:35:52;;;;;;;2.63;1.95;;;;;;;20.78;50.11;99062.72;4933294;29;20473;-76
2023/05/21 02:38:18;;;;;;;3.55;2.38;;;;;;;20.79;50.36;99061.75;4932918;29;20050;-75
2023/05/21 02:40:44;;;;;;;3.83;2.30;;;;;;;20.78;50.33;99058.25;4933436;29;20015;-75
2023/05/21 02:43:10;;;;;;;3.63;2.10;;;;;;;20.78;50.18;99066.19;4933312;28;20034;-75
2023/05/21 02:45:35;;;;;;;4.07;2.50;;;;;;;20.79;50.24;99067.06;4916287;29;20023;-76
2023/05/21 02:48:01;;;;;;;4.32;2.55;;;;;;;20.78;50.15;99065.38;4933216;29;20055;-75
2023/05/21 02:50:26;;;;;;;3.63;2.40;;;;;;;20.78;50.29;99068.84;4933248;29;20039;-76
2023/05/21 02:52:51;;;;;;;4.07;2.38;;;;;;;20.78;50.23;99068.03;4933091;29;20031;-75
2023/05/21 02:55:17;;;;;;;3.30;2.40;;;;;;;20.76;50.04;99062.81;4933026;28;20058;-76
2023/05/21 02:57:42;;;;;;;2.80;2.00;;;;;;;20.77;50.09;99069.81;4933097;29;20031;-76
2023/05/21 03:00:09;;;;;;;3.72;2.20;;;;;;;20.76;50.25;99062.81;4933052;29;20039;-75
2023/05/21 03:02:34;;;;;;;3.42;2.25;;;;;;;20.75;50.24;99062.91;4933236;29;20035;-75
2023/05/21 03:05:00;;;;;;;3.22;2.25;;;;;;;20.77;50.24;99069.81;4932785;29;20106;-75
2023/05/21 03:07:25;;;;;;;3.28;2.00;;;;;;;20.75;50.03;99054.97;4933080;29;20512;-76
2023/05/21 03:09:51;;;;;;;3.90;2.45;;;;;;;20.74;50.29;99061.22;4933033;29;20445;-75
2023/05/21 03:12:16;;;;;;;3.88;2.20;;;;;;;20.73;50.36;99067.47;4932966;29;20498;-75
2023/05/21 03:14:42;;;;;;;3.45;2.22;;;;;;;20.74;50.02;99069.16;4932675;29;20023;-75
2023/05/21 03:17:12;;;;;;;3.58;2.25;;;;;;;20.72;50.12;99066.63;4932816;29;20119;-76
2023/05/21 03:19:41;;;;;;;3.35;2.25;;;;;;;20.73;50.08;99064.81;4932396;29;20023;-75
2023/05/21 03:22:06;;;;;;;2.85;2.00;;;;;;;20.72;49.97;99065.78;4932697;29;20027;-75
2023/05/21 03:24:32;;;;;;;3.63;2.50;;;;;;;20.73;50.35;99073.59;4932614;29;20035;-75
2023/05/21 03:27:00;;;;;;;3.80;2.30;;;;;;;20.71;50.18;99070.22;4931594;29;20020;-76
2023/05/21 03:29:26;;;;;;;4.32;2.40;;;;;;;20.71;50.22;99069.34;4915601;29;20035;-76
2023/05/21 03:31:55;;;;;;;3.30;2.00;;;;;;;20.70;50.25;99067.66;4931587;29;20389;-75
2023/05/21 03:34:21;;;;;;;3.95;2.40;;;;;;;20.70;50.08;99072.97;4932229;29;20110;-75
2023/05/21 03:36:47;;;;;;;3.20;2.40;;;;;;;20.70;50.29;99073.81;4914973;29;20107;-76
2023/05/21 03:39:12;;;;;;;3.78;2.25;;;;;;;20.70;50.17;99078.28;4913627;29;20032;-75
2023/05/21 03:41:38;;;;;;;3.50;2.22;;;;;;;20.69;50.25;99074.78;4913660;29;20040;-75
2023/05/21 03:44:03;;;;;;;3.58;2.25;;;;;;;20.67;50.11;99081.97;4896463;29;20020;-76
2023/05/21 03:46:29;;;;;;;3.75;1.90;;;;;;;20.68;50.32;99081.00;4913555;29;20028;-75
2023/05/21 03:48:54;;;;;;;3.67;2.30;;;;;;;20.68;50.11;99091.63;4912881;29;20024;-75
2023/05/21 03:51:20;;;;;;;3.47;2.38;;;;;;;20.69;50.06;99084.53;4929132;29;20027;-76
2023/05/21 03:53:45;;;;;;;3.60;2.42;;;;;;;20.66;50.11;99081.13;4932494;29;20024;-76
2023/05/21 03:56:11;;;;;;;3.63;2.17;;;;;;;20.68;50.35;99085.47;4932010;28;20807;-75
2023/05/21 03:58:37;;;;;;;3.90;2.30;;;;;;;20.68;50.24;99085.47;4932399;29;20074;-76
2023/05/21 04:01:03;;;;;;;3.28;2.30;;;;;;;20.67;50.22;99089.91;4932200;29;20027;-75
2023/05/21 04:03:29;;;;;;;3.40;2.40;;;;;;;20.65;49.97;99086.53;4931858;29;20099;-76
2023/05/21 04:05:55;;;;;;;3.15;1.90;;;;;;;20.65;50.17;99091.84;4932292;29;20565;-75
2023/05/21 04:08:20;;;;;;;4.43;2.60;;;;;;;20.63;50.11;99083.97;4932099;29;20047;-76
2023/05/21 04:10:46;;;;;;;3.53;2.30;;;;;;;20.64;50.20;99090.97;4932242;29;20074;-75
2023/05/21 04:13:11;;;;;;;3.00;2.00;;;;;;;20.65;50.06;99098.00;4932042;29;20119;-75
2023/05/21 04:15:37;;;;;;;3.67;2.47;;;;;;;20.63;49.98;99091.94;4932509;29;20060;-75
2023/05/21 04:18:03;;;;;;;4.10;2.50;;;;;;;20.63;50.24;99089.28;4931670;29;20458;-75
2023/05/21 04:20:28;;;;;;;3.70;2.60;;;;;;;20.64;50.24;99090.97;4932143;29;20040;-76
2023/05/21 04:22:54;;;;;;;2.97;2.13;;;;;;;20.62;50.14;99092.88;4932128;29;20085;-76
2023/05/21 04:25:21;;;;;;;4.57;2.42;;;;;;;20.63;49.93;99091.94;4931976;29;20032;-76
2023/05/21 04:27:48;;;;;;;3.20;2.30;;;;;;;20.62;50.19;99098.19;4931961;29;20035;-76
2023/05/21 04:30:14;;;;;;;4.00;2.50;;;;;;;20.63;50.29;99094.56;4931890;29;20035;-75
2023/05/21 04:32:39;;;;;;;3.55;2.28;;;;;;;20.63;50.06;99109.66;4931579;29;20490;-76
2023/05/21 04:35:05;;;;;;;4.93;2.42;;;;;;;20.63;50.34;99099.88;4931705;29;20032;-76
2023/05/21 04:37:33;;;;;;;4.85;2.63;;;;;;;20.61;50.03;99101.78;4932880;29;20051;-76
2023/05/21 04:40:02;;;;;;;3.15;2.28;;;;;;;20.62;50.12;99105.28;4935216;29;20117;-76
2023/05/21 04:42:29;;;;;;;3.22;2.30;;;;;;;20.61;50.29;99106.22;4935158;29;20078;-75
2023/05/21 04:44:54;;;;;;;3.83;2.30;;;;;;;20.60;50.16;99100.09;4934102;29;20119;-75
2023/05/21 04:47:20;;;;;;;3.78;2.38;;;;;;;20.61;50.06;99109.75;4934777;29;20028;-77
2023/05/21 04:49:45;;;;;;;4.30;2.45;;;;;;;20.61;50.20;99107.09;4934714;29;20031;-76
2023/05/21 04:52:11;;;;;;;3.72;2.28;;;;;;;20.60;50.15;99105.41;4934838;29;20111;-75
2023/05/21 04:54:37;;;;;;;3.78;2.33;;;;;;;20.62;50.07;99114.09;4934689;28;20086;-76
2023/05/21 04:57:06;;;;;;;4.40;2.42;;;;;;;20.60;50.01;99113.34;4934755;29;20522;-76
2023/05/21 04:59:31;;;;;;;3.85;2.67;;;;;;;20.60;50.08;99115.13;4934865;29;20031;-76
2023/05/21 05:01:57;;;;;;;3.17;2.40;;;;;;;20.58;50.04;99117.88;4934232;29;20121;-75
2023/05/21 05:04:22;;;;;;;3.70;2.45;;;;;;;20.59;50.00;99119.56;4934748;29;20023;-75
2023/05/21 05:06:48;;;;;;;4.07;2.55;;;;;;;20.59;50.01;99119.56;4934806;29;20433;-76
2023/05/21 05:09:14;;;;;;;3.72;2.20;;;;;;;20.58;50.05;99114.41;4934559;29;20036;-76
2023/05/21 05:11:40;;;;;;;3.78;2.30;;;;;;;20.59;50.27;99113.44;4934496;29;20118;-75
2023/05/21 05:14:06;;;;;;;3.17;2.33;;;;;;;20.58;50.01;99112.59;4934648;29;20058;-76
2023/05/21 05:16:31;;;;;;;4.22;2.83;;;;;;;20.58;50.19;99117.06;4934156;29;20035;-75
2023/05/21 05:18:57;;;;;;;3.80;2.20;;;;;;;20.58;50.04;99123.19;4934502;29;20051;-76
2023/05/21 05:21:22;;;;;;;3.30;2.58;;;;;;;20.57;50.00;99116.19;4934631;29;20028;-75
2023/05/21 05:23:48;;;;;;;3.55;2.20;;;;;;;20.58;50.21;99117.88;4934354;28;20089;-76
2023/05/21 05:26:14;;;;;;;3.60;2.45;;;;;;;20.57;50.09;99116.19;4934470;29;20039;-76
2023/05/21 05:28:39;;;;;;;3.60;2.28;;;;;;;20.56;49.92;99117.16;4934406;29;20034;-76
2023/05/21 05:31:05;;;;;;;3.83;2.55;;;;;;;20.56;50.01;99118.94;4933989;29;20475;-76
2023/05/21 05:33:31;;;;;;;3.90;2.50;;;;;;;20.56;50.05;99125.09;4934106;29;20035;-76
2023/05/21 05:35:56;;;;;;;3.85;2.20;;;;;;;20.55;50.16;99123.41;4917147;29;20509;-76
2023/05/21 05:38:22;;;;;;;4.50;2.65;;;;;;;20.53;50.27;99120.84;4934175;29;20385;-76
2023/05/21 05:40:47;;;;;;;4.20;2.40;;;;;;;20.55;50.23;99120.75;4934185;29;20035;-76
2023/05/21 05:43:12;;;;;;;3.50;2.42;;;;;;;20.55;50.01;99120.75;4934168;29;20032;-75
2023/05/21 05:45:38;;;;;;;3.45;2.53;;;;;;;20.55;50.12;99122.53;4933736;29;20043;-76
2023/05/21 05:48:03;;;;;;;4.00;2.75;;;;;;;20.54;50.25;99121.69;4933669;29;20449;-75
2023/05/21 05:50:29;;;;;;;3.90;2.30;;;;;;;20.55;49.91;99123.41;4933560;29;20028;-76
2023/05/21 05:52:54;;;;;;;3.42;2.58;;;;;;;20.54;49.97;99129.66;4934185;29;20050;-76
2023/05/21 05:55:20;;;;;;;3.67;2.25;;;;;;;20.53;50.11;99120.84;4933878;28;20040;-76
2023/05/21 05:57:46;;;;;;;4.45;2.67;;;;;;;20.54;49.95;99127.00;4934034;29;20041;-76
2023/05/21 06:00:13;;;;;;;3.25;2.38;;;;;;;20.54;50.07;99129.66;4933639;29;20128;-76
2023/05/21 06:02:39;;;;;;;4.43;2.95;;;;;;;20.54;49.99;99124.34;4933979;29;20469;-75
2023/05/21 06:05:05;;;;;;;3.22;2.25;;;;;;;20.53;49.95;99125.28;4933880;29;20409;-76
2023/05/21 06:07:31;;;;;;;3.75;2.33;;;;;;;20.52;49.94;99124.44;4933916;29;20039;-76
2023/05/21 06:09:57;;;;;;;4.15;2.88;;;;;;;20.51;49.97;99121.88;4933860;29;20098;-76
2023/05/21 06:12:22;;;;;;;3.78;2.30;;;;;;;20.51;50.01;99129.84;4933779;29;20040;-75
2023/05/21 06:14:47;;;;;;;4.38;2.85;;;;;;;20.51;50.15;99133.34;4933524;29;20036;-76
2023/05/21 06:17:13;;;;;;;4.05;2.47;;;;;;;20.50;50.13;99131.63;4933573;28;20111;-76
2023/05/21 06:19:39;;;;;;;3.88;2.50;;;;;;;20.51;49.99;99133.34;4933872;29;20038;-76
2023/05/21 06:22:04;;;;;;;4.55;2.40;;;;;;;20.50;50.14;99130.78;4933571;29;20489;-76
2023/05/21 06:24:30;;;;;;;4.07;2.50;;;;;;;20.50;49.97;99125.50;4933491;29;20078;-76
2023/05/21 06:26:55;;;;;;;3.85;2.63;;;;;;;20.49;50.20;99127.28;4933291;28;20094;-75
2023/05/21 06:29:21;;;;;;;3.03;2.30;;;;;;;20.48;50.10;99128.22;4933096;29;20028;-75
2023/05/21 06:31:47;;;;;;;3.45;2.35;;;;;;;20.48;50.09;99122.94;4933395;29;20039;-77
2023/05/21 06:34:13;;;;;;;3.65;2.45;;;;;;;20.47;50.19;99125.66;4933194;29;20028;-76
2023/05/21 06:36:38;;;;;;;3.58;2.85;;;;;;;20.46;50.32;99123.97;4933217;29;20042;-76
2023/05/21 06:39:04;;;;;;;4.05;2.45;;;;;;;20.47;50.12;99123.03;4932349;29;20035;-76
2023/05/21 06:41:29;;;;;;;4.03;2.60;;;;;;;20.46;50.20;99129.28;4933240;29;20098;-76
2023/05/21 06:43:55;;;;;;;4.32;2.63;;;;;;;20.46;50.14;99126.63;4921875;29;20043;-76
2023/05/21 06:46:21;;;;;;;3.75;2.67;;;;;;;20.45;50.14;99127.59;4914356;29;20028;-76
2023/05/21 06:48:46;;;;;;;4.38;2.80;;;;;;;20.46;50.33;99134.56;4914306;29;20464;-76
2023/05/21 06:51:12;;;;;;;3.63;2.60;;;;;;;20.44;50.22;99131.19;4928787;29;20517;-76
2023/05/21 06:53:37;;;;;;;3.80;2.65;;;;;;;20.44;50.18;99125.88;4933337;28;20028;-76
2023/05/21 06:56:03;;;;;;;3.60;2.47;;;;;;;20.45;50.33;99127.59;4933037;28;20139;-76
2023/05/21 06:58:30;;;;;;;4.00;2.60;;;;;;;20.46;50.33;99134.56;4932788;29;20028;-76
2023/05/21 07:00:58;;;;;;;4.07;2.70;;;;;;;20.46;50.30;99134.56;4932942;29;20027;-75
2023/05/21 07:03:23;;;;;;;3.10;2.40;;;;;;;20.44;50.34;99147.09;4932924;29;20513;-75
2023/05/21 07:05:49;;;;;;;4.75;2.80;;;;;;;20.43;50.27;99148.03;4933096;29;20031;-76
2023/05/21 07:08:14;;;;;;;5.00;2.72;;;;;;;20.45;50.17;99146.13;4933021;29;20104;-76
2023/05/21 07:10:41;;;;;;;4.22;2.70;;;;;;;20.45;50.45;99149.66;4932729;29;20028;-76
2023/05/21 07:13:06;;;;;;;3.70;2.60;;;;;;;20.43;50.52;99143.56;4932410;29;20039;-77
2023/05/21 07:15:32;;;;;;;5.05;2.60;;;;;;;20.44;50.48;99141.78;4915838;29;20028;-75
2023/05/21 07:17:57;;;;;;;3.90;2.60;;;;;;;20.44;50.46;99139.97;4932714;29;20088;-75
2023/05/21 07:20:22;;;;;;;4.68;2.42;;;;;;;20.44;50.52;99147.09;4933074;29;20470;-76
2023/05/21 07:22:48;;;;;;;4.55;2.70;;;;;;;20.44;50.33;99141.78;4930569;29;20478;-75
2023/05/21 07:25:13;;;;;;;4.30;2.70;;;;;;;20.45;50.32;99148.78;4913793;29;20114;-76
2023/05/21 07:27:40;;;;;;;4.10;2.80;;;;;;;20.45;50.52;99146.13;4922078;29;20388;-76
2023/05/21 07:30:06;;;;;;;4.30;2.50;;;;;;;20.44;50.39;99152.38;4932746;29;20110;-76
2023/05/21 07:32:32;;;;;;;4.75;2.80;;;;;;;20.45;50.44;99141.69;4932622;29;20052;-76
2023/05/21 07:35:00;;;;;;;4.30;2.40;;;;;;;20.44;50.33;99149.75;4932616;29;20059;-76
2023/05/21 07:37:26;;;;;;;3.70;2.53;;;;;;;20.44;50.44;99152.38;4932668;29;20042;-75
2023/05/21 07:39:52;;;;;;;4.80;2.97;;;;;;;20.44;50.44;99155.03;4932393;29;20032;-76
2023/05/21 07:42:18;;;;;;;3.22;2.60;;;;;;;20.45;50.37;99154.09;4915188;29;20067;-76
2023/05/21 07:44:43;;;;;;;4.78;2.88;;;;;;;20.45;50.40;99154.09;4915128;29;20396;-75
2023/05/21 07:47:08;;;;;;;4.78;2.80;;;;;;;20.44;50.53;99152.38;4932470;29;20115;-76
2023/05/21 07:49:34;;;;;;;4.20;3.03;;;;;;;20.43;50.32;99151.53;4932184;29;20050;-75
2023/05/21 07:52:00;;;;;;;4.57;3.05;;;;;;;20.44;50.41;99155.03;4932196;29;20064;-76
2023/05/21 07:54:25;;;;;;;5.32;2.90;;;;;;;20.43;50.41;99153.34;4932186;28;20382;-76
2023/05/21 07:56:50;;;;;;;4.82;2.85;;;;;;;20.43;50.51;99159.47;4931962;29;20043;-76
2023/05/21 07:59:16;;;;;;;4.78;3.00;;;;;;;20.44;50.38;99157.69;4932101;29;20031;-75
2023/05/21 08:01:42;;;;;;;5.18;2.83;;;;;;;20.44;50.38;99152.38;4932254;29;20031;-76
2023/05/21 08:04:08;;;;;;;3.92;2.78;;;;;;;20.44;50.50;99163.81;4932140;29;20089;-76
2023/05/21 08:06:33;;;;;;;5.35;3.25;;;;;;;20.46;50.44;99158.44;4932107;29;20398;-76
2023/05/21 08:09:02;;;;;;;4.85;2.65;;;;;;;20.45;50.36;99165.56;4932092;29;20028;-76
2023/05/21 08:11:28;;;;;;;4.95;2.80;;;;;;;20.44;50.40;99157.69;4930969;29;20036;-77
2023/05/21 08:13:54;;;;;;;4.35;2.90;;;;;;;20.44;50.45;99163.00;4931977;29;20383;-75
2023/05/21 08:16:20;;;;;;;4.88;2.75;;;;;;;20.43;50.49;99156.00;4931852;29;20036;-76
2023/05/21 08:18:45;;;;;;;3.95;2.78;;;;;;;20.44;50.34;99152.38;4931834;29;20023;-76
2023/05/21 08:21:11;;;;;;;5.00;2.80;;;;;;;20.45;50.58;99154.09;4932017;29;20027;-76
2023/05/21 08:23:37;;;;;;;3.85;2.78;;;;;;;20.44;50.34;99158.53;4931981;29;20024;-76
2023/05/21 08:26:02;;;;;;;5.32;2.95;;;;;;;20.43;50.60;99156.00;4914471;29;20031;-75
2023/05/21 08:28:29;;;;;;;4.97;2.95;;;;;;;20.44;50.44;99157.69;4931965;29;20028;-76
2023/05/21 08:30:54;;;;;;;4.53;3.20;;;;;;;20.45;50.78;99154.09;4931815;29;20031;-76
2023/05/21 08:33:19;;;;;;;4.75;3.20;;;;;;;20.44;50.75;99158.53;4931714;28;20035;-76
2023/05/21 08:35:45;;;;;;;6.10;3.10;;;;;;;20.44;50.78;99157.69;4914709;29;20057;-76
2023/05/21 08:38:10;;;;;;;5.15;2.95;;;;;;;20.44;50.74;99163.00;4931565;29;20090;-76
2023/05/21 08:40:36;;;;;;;5.63;3.40;;;;;;;20.43;50.80;99164.78;4931539;29;20023;-77
2023/05/21 08:43:01;;;;;;;4.50;3.05;;;;;;;20.43;50.67;99156.81;4931605;29;20445;-76
2023/05/21 08:45:36;;;;;;;4.47;2.85;;;;;;;20.44;50.76;99163.00;4931523;29;20063;-75
2023/05/21 08:48:02;;;;;;;4.43;2.75;;;;;;;20.45;50.78;99159.38;4931694;29;20055;-76
2023/05/21 08:50:28;;;;;;;5.05;3.00;;;;;;;20.44;50.78;99160.34;4931637;29;20119;-76
2023/05/21 08:52:57;;;;;;;4.85;3.10;;;;;;;20.45;50.66;99164.69;4931493;29;20055;-76
2023/05/21 08:55:23;;;;;;;4.28;2.92;;;;;;;20.46;50.64;99166.38;4931352;28;20119;-76
2023/05/21 08:57:49;;;;;;;4.47;3.03;;;;;;;20.45;50.87;99154.94;4931539;29;20475;-76
2023/05/21 09:00:15;;;;;;;4.47;2.60;;;;;;;20.45;50.86;99162.91;4931602;29;20440;-76
2023/05/21 09:02:42;;;;;;;5.85;3.40;;;;;;;20.45;50.60;99160.25;4931217;29;20032;-75
2023/05/21 09:05:08;;;;;;;4.32;2.97;;;;;;;20.46;50.79;99156.66;4931366;29;20039;-76
2023/05/21 09:07:42;;;;;;;4.90;3.47;;;;;;;20.45;50.86;99160.25;4930936;29;20032;-76
2023/05/21 09:10:11;;;;;;;4.30;3.25;;;;;;;20.46;50.66;99161.09;4930269;29;20032;-76
2023/05/21 09:12:37;;;;;;;5.22;3.42;;;;;;;20.47;50.86;99162.78;4931294;29;20107;-75
2023/05/21 09:15:03;;;;;;;4.68;3.03;;;;;;;20.46;50.73;99161.09;4931388;29;20111;-76
2023/05/21 09:17:29;;;;;;;4.90;3.15;;;;;;;20.47;51.00;99168.06;4931408;29;20036;-76
2023/05/21 09:20:08;;;;;;;3.95;2.92;;;;;;;20.45;50.79;99170.84;4931250;29;20074;-76
2023/05/21 09:22:35;;;;;;;4.65;3.08;;;;;;;20.44;50.69;99170.94;4930900;29;20541;-76
2023/05/21 09:25:03;;;;;;;4.30;2.70;;;;;;;20.45;50.75;99168.19;4932828;29;20032;-76
2023/05/21 09:27:29;;;;;;;3.50;2.33;;;;;;;20.48;50.68;99169.81;4934254;29;20102;-76
2023/05/21 09:29:54;;;;;;;4.38;2.95;;;;;;;20.47;50.69;99173.38;4934409;29;20478;-76
2023/05/21 09:32:20;;;;;;;4.45;2.90;;;;;;;20.47;50.67;99165.44;4934346;29;20066;-75
2023/05/21 09:34:46;;;;;;;4.00;2.97;;;;;;;20.46;50.73;99171.69;4934411;29;20051;-77
2023/05/21 09:37:12;;;;;;;4.18;2.83;;;;;;;20.47;50.89;99173.38;4934136;28;20074;-76
2023/05/21 09:39:40;;;;;;;4.18;3.10;;;;;;;20.46;50.79;99172.53;4934267;29;20441;-76
2023/05/21 09:42:05;;;;;;;4.20;2.80;;;;;;;20.49;50.82;99174.16;4934155;29;20066;-76
2023/05/21 09:44:31;;;;;;;4.60;3.10;;;;;;;20.47;50.79;99173.38;4934086;29;20024;-78
2023/05/21 09:46:58;;;;;;;4.40;3.05;;;;;;;20.48;50.98;99180.41;4934338;29;20682;-76
2023/05/21 09:49:25;;;;;;;3.90;3.00;;;;;;;20.49;50.76;99179.44;4933922;29;20041;-76
2023/05/21 09:51:57;;;;;;;4.55;3.00;;;;;;;20.49;50.95;99185.59;4933909;29;20036;-76
2023/05/21 09:54:23;;;;;;;4.30;3.00;;;;;;;20.49;50.74;99184.75;4933710;28;20020;-76
2023/05/21 09:56:53;;;;;;;4.47;2.95;;;;;;;20.49;50.77;99187.41;4933850;29;20088;-75
2023/05/21 09:59:19;;;;;;;4.55;3.08;;;;;;;20.49;50.83;99190.06;4934071;29;20051;-76
2023/05/21 10:01:45;;;;;;;3.88;2.83;;;;;;;20.48;50.84;99193.66;4934124;29;20030;-75
2023/05/21 10:04:11;;;;;;;6.35;3.10;;;;;;;20.49;50.95;99192.72;4933670;29;20036;-76
2023/05/21 10:06:41;;;;;;;4.82;3.15;;;;;;;20.48;51.04;99191.84;4933755;29;20031;-76
2023/05/21 10:09:09;;;;;;;4.70;2.90;;;;;;;20.49;50.98;99193.53;4933843;29;20039;-76
2023/05/21 10:11:35;;;;;;;5.55;3.08;;;;;;;20.49;50.83;99200.66;4933834;29;20032;-77
2023/05/21 10:14:15;;;;;;;4.60;3.08;;;;;;;20.50;50.77;99192.59;4933816;28;20103;-76
2023/05/21 10:16:41;;;;;;;4.85;3.30;;;;;;;20.50;50.71;99199.72;4933672;29;20036;-76
2023/05/21 10:19:11;;;;;;;4.28;2.95;;;;;;;20.49;50.65;99198.00;4933688;29;20039;-76
2023/05/21 10:21:38;;;;;;;4.30;2.83;;;;;;;20.50;50.80;99205.00;4933712;29;20054;-76
2023/05/21 10:24:05;;;;;;;4.50;3.00;;;;;;;20.50;50.77;99194.41;4933470;29;20070;-76
2023/05/21 10:26:31;;;;;;;4.60;3.13;;;;;;;20.50;51.29;99199.72;4933723;28;20026;-77
2023/05/21 10:28:59;;;;;;;4.68;3.00;;;;;;;20.50;50.83;99200.53;4933688;29;20031;-76
2023/05/21 10:31:26;;;;;;;4.75;2.90;;;;;;;20.50;50.78;99199.72;4933518;29;20027;-76
2023/05/21 10:33:52;;;;;;;5.38;3.00;;;;;;;20.51;51.00;99196.09;4933525;29;20020;-76
2023/05/21 10:36:19;;;;;;;5.65;3.20;;;;;;;20.51;50.66;99198.75;4932524;29;20023;-75
2023/05/21 10:38:46;;;;;;;4.78;3.30;;;;;;;20.51;50.69;99198.75;4933373;29;20026;-75
2023/05/21 10:41:14;;;;;;;4.97;3.20;;;;;;;20.51;50.76;99199.63;4933484;29;20020;-76
2023/05/21 10:43:59;;;;;;;5.00;3.13;;;;;;;20.52;50.68;99200.44;4933235;29;20508;-76
2023/05/21 10:46:55;;;;;;;5.22;3.10;;;;;;;20.53;50.82;99200.34;4933501;29;20038;-75
2023/05/21 10:49:42;;;;;;;3.40;2.67;;;;;;;20.53;50.69;99188.88;4932864;29;20036;-76
2023/05/21 10:52:07;;;;;;;;;;;;;;;20.54;50.77;99198.56;4933813;29;20031;-75
2023/05/21 10:54:36;;;;;;;4.23;3.10;;;;;;;20.54;50.71;99190.63;4933147;28;20338;-76
2023/05/21 10:57:13;;;;;;;5.10;3.45;;;;;;;20.55;50.64;99192.31;4933281;29;20070;-77
2023/05/21 10:59:41;;;;;;;4.50;3.15;;;;;;;20.52;51.00;99189.84;4933322;29;20036;-76
2023/05/21 11:02:08;;;;;;;4.25;2.75;;;;;;;20.56;50.91;99194.00;4933167;29;20105;-76
2023/05/21 11:04:38;;;;;;;5.20;3.03;;;;;;;20.53;50.84;99189.75;4932617;29;20039;-75
2023/05/21 11:07:04;;;;;;;4.35;2.95;;;;;;;20.52;50.88;99193.34;4933092;29;20082;-76
2023/05/21 11:09:29;;;;;;;4.97;3.20;;;;;;;20.55;50.84;99191.44;4933077;29;20039;-77
2023/05/21 11:11:59;;;;;;;5.65;3.00;;;;;;;20.53;51.04;99200.34;4932810;29;20027;-76
2023/05/21 11:14:38;;;;;;;4.85;3.47;;;;;;;20.57;51.03;99201.00;4932912;29;20034;-76
2023/05/21 11:17:06;;;;;;;4.10;2.90;;;;;;;20.57;50.90;99190.41;4932049;29;20086;-76
2023/05/21 11:19:37;;;;;;;4.78;3.05;;;;;;;20.56;51.05;99194.00;4932400;29;20031;-75
2023/05/21 11:22:26;;;;;;;5.70;3.85;;;;;;;20.57;50.82;99193.06;4932675;29;20036;-76
2023/05/21 11:24:53;;;;;;;5.18;3.40;;;;;;;20.58;50.77;99188.63;4937381;28;20090;-75
2023/05/21 11:27:32;;;;;;;4.55;3.08;;;;;;;20.58;50.76;99197.41;4932659;29;20027;-76
2023/05/21 11:29:58;;;;;;;4.40;3.13;;;;;;;20.59;50.69;99198.28;4932963;29;20081;-75
2023/05/21 11:32:23;;;;;;;5.78;3.65;;;;;;;20.57;50.83;99195.72;4932764;29;20039;-76